Time;durP1;ratioP1;P1;durP2;ratioP2;P2;SDS_P1;SDS_P2;PMS_P1;PMS_P2;Temp;Humidity;BMP_temperature;BMP_pressure;BME280_temperature;BME280_humidity;BME280_pressure;Samples;Min_cycle;Max_cycle;Signal;HPM_P1;HPM_P2
2022/12/28 00:01:58;;;;;;;;;;;;;;;-1.68;100.00;97544.75;5023291;28;19933;-65
2022/12/28 00:04:24;;;;;;;;;;;;;;;-1.57;100.00;97545.56;5019286;28;19921;-66
2022/12/28 00:06:49;;;;;;;;;;;;;;;-1.40;100.00;97543.44;5023825;28;20441;-66
2022/12/28 00:09:14;;;;;;;;;;;;;;;-1.43;100.00;97537.78;5018504;28;20341;-65
2022/12/28 00:11:40;;;;;;;;;;;;;;;-1.38;100.00;97537.81;5006465;28;19959;-65
2022/12/28 00:14:05;;;;;;;;;;;;;;;-1.34;100.00;97544.25;5018744;28;19932;-65
2022/12/28 00:16:34;;;;;;;;;;;;;;;-1.29;100.00;97552.31;5022299;28;19924;-65
2022/12/28 00:19:01;;;;;;;;;;;;;;;-1.31;100.00;97549.09;5023603;28;19921;-66
2022/12/28 00:21:27;;;;;;;;;;;;;;;-1.21;100.00;97548.28;5018381;28;20386;-66
2022/12/28 00:23:53;;;;;;;;;;;;;;;-1.10;100.00;97541.81;5022923;28;19961;-66
2022/12/28 00:26:19;;;;;;;;;;;;;;;-1.00;100.00;97539.13;5017827;28;20412;-66
2022/12/28 00:28:45;;;;;;;;;;;;;;;-0.96;100.00;97542.88;5022918;28;19917;-66
2022/12/28 00:31:11;;;;;;;;;;;;;;;-0.85;100.00;97540.97;5019046;28;20008;-67
2022/12/28 00:33:36;;;;;;;;;;;;;;;-0.87;100.00;97543.13;5023684;28;19917;-66
2022/12/28 00:36:02;;;;;;;;;;;;;;;-1.17;100.00;97531.34;5034704;28;19921;-64
2022/12/28 00:38:30;;;;;;;;;;;;;;;-1.29;100.00;97525.44;5019856;28;19921;-67
2022/12/28 00:40:55;;;;;;;;;;;;;;;-1.26;100.00;97527.59;5023791;28;19917;-66
2022/12/28 00:43:20;;;;;;;;;;;;;;;-1.13;100.00;97526.25;5018925;28;20266;-66
2022/12/28 00:45:46;;;;;;;;;;;;;;;-1.08;100.00;97523.56;5022756;28;19921;-67
2022/12/28 00:48:12;;;;;;;;;;;;;;;-0.94;100.00;97518.41;5018236;28;19917;-66
2022/12/28 00:50:37;;;;;;;;;;;;;;;-0.79;100.00;97509.50;5023203;28;19925;-68
2022/12/28 00:53:02;;;;;;;;;;;;;;;-0.70;100.00;97517.81;5024940;28;19928;-65
2022/12/28 00:55:28;;;;;;;;;;;;;;;-0.58;100.00;97504.84;5019344;28;20362;-66
2022/12/28 00:57:53;;;;;;;;;;;;;;;-0.47;100.00;97505.63;5044193;28;19971;-67
2022/12/28 01:00:18;;;;;;;;;;;;;;;-0.50;100.00;97507.00;5029069;28;20336;-67
2022/12/28 01:02:44;;;;;;;;;;;;;;;-0.96;100.00;97509.81;5022701;28;19948;-64
2022/12/28 01:05:09;;;;;;;;;;;;;;;-1.05;100.00;97511.44;5017616;28;19921;-65
2022/12/28 01:07:34;;;;;;;;;;;;;;;-1.13;100.00;97512.78;5021487;28;19917;-66
2022/12/28 01:09:59;;;;;;;;;;;;;;;-1.09;100.00;97521.13;5022183;28;19924;-65
2022/12/28 01:12:25;;;;;;;;;;;;;;;-0.86;100.00;97509.78;5017188;28;20007;-65
2022/12/28 01:14:50;;;;;;;;;;;;;;;-0.65;100.00;97509.72;5022141;28;19921;-66
2022/12/28 01:17:15;;;;;;;;;;;;;;;-0.50;100.00;97509.69;5016938;28;19964;-66
2022/12/28 01:19:40;;;;;;;;;;;;;;;-0.57;100.00;97498.41;5023021;28;20301;-64
2022/12/28 01:22:06;;;;;;;;;;;;;;;-0.63;100.00;97496.78;5017930;28;19933;-66
2022/12/28 01:24:31;;;;;;;;;;;;;;;-0.65;100.00;97501.66;5019896;28;19929;-65
2022/12/28 01:26:56;;;;;;;;;;;;;;;-0.67;100.00;97496.53;5021903;28;20349;-65
2022/12/28 01:29:22;;;;;;;;;;;;;;;-0.63;100.00;97496.78;5016935;28;20031;-65
2022/12/28 01:31:47;;;;;;;;;;;;;;;-0.60;100.00;97494.38;5023071;28;19964;-66
2022/12/28 01:34:12;;;;;;;;;;;;;;;-0.51;100.00;97491.91;5017140;28;20301;-66
2022/12/28 01:36:38;;;;;;;;;;;;;;;-0.46;100.00;97491.91;5022573;28;19999;-66
2022/12/28 01:39:04;;;;;;;;;;;;;;;-0.45;100.00;97490.81;5018545;28;19925;-63
2022/12/28 01:41:31;;;;;;;;;;;;;;;-0.44;100.00;97497.81;5023227;28;19921;-66
2022/12/28 01:43:56;;;;;;;;;;;;;;;-0.41;100.00;97502.66;5024315;28;19979;-65
2022/12/28 01:46:23;;;;;;;;;;;;;;;-0.37;100.00;97502.09;5017387;28;20307;-65
2022/12/28 01:48:49;;;;;;;;;;;;;;;-0.33;100.00;97503.16;5020782;28;20289;-66
2022/12/28 01:51:14;;;;;;;;;;;;;;;-0.31;100.00;97503.69;5017989;28;20008;-66
2022/12/28 01:53:40;;;;;;;;;;;;;;;-0.03;100.00;97516.47;5021744;28;19960;-65
2022/12/28 01:56:05;;;;;;;;;;;;;;;0.21;100.00;97506.91;5016563;28;19921;-66
2022/12/28 01:58:31;;;;;;;;;;;;;;;0.30;100.00;97503.31;5003204;28;20682;-65
2022/12/28 02:00:57;;;;;;;;;;;;;;;0.33;100.00;97489.31;5020107;28;20388;-65
2022/12/28 02:03:24;;;;;;;;;;;;;;;0.33;100.00;97485.81;5015932;28;19929;-65
2022/12/28 02:05:51;;;;;;;;;;;;;;;0.34;100.00;97480.16;5019713;28;19922;-66
2022/12/28 02:08:23;;;;;;;;;;;;;;;0.34;100.00;97471.22;5015964;28;19957;-66
2022/12/28 02:10:48;;;;;;;;;;;;;;;0.33;100.00;97458.88;5022072;28;19936;-66
2022/12/28 02:13:15;;;;;;;;;;;;;;;0.30;100.00;97460.22;5012544;28;19940;-66
2022/12/28 02:15:40;;;;;;;;;;;;;;;0.25;100.00;97462.16;5017825;28;19917;-66
2022/12/28 02:18:05;;;;;;;;;;;;;;;0.26;100.00;97455.69;5017212;28;19931;-66
2022/12/28 02:20:50;;;;;;;;;;;;;;;0.28;100.00;97454.31;5022589;28;19952;-65
2022/12/28 02:23:37;;;;;;;;;;;;;;;0.38;100.00;97445.34;5016656;28;20405;-66
2022/12/28 02:26:15;;;;;;;;;;;;;;;0.42;100.00;97449.09;5018864;28;19925;-63
2022/12/28 02:28:59;;;;;;;;;;;;;;;0.47;100.00;97453.59;5020890;28;19925;-65
2022/12/28 02:31:29;;;;;;;;;;;;;;;0.51;100.00;97450.09;5025048;28;19996;-67
2022/12/28 02:34:02;;;;;;;;;;;;;;;0.49;100.00;97446.06;5031234;28;20271;-66
2022/12/28 02:36:31;;;;;;;;;;;;;;;0.47;100.00;97445.53;5030534;28;19917;-66
2022/12/28 02:39:04;;;;;;;;;;;;;;;0.52;100.00;97448.19;5031135;28;19913;-67
2022/12/28 02:41:30;;;;;;;;;;;;;;;0.51;100.00;97446.59;5031279;28;20463;-68
2022/12/28 02:43:57;;;;;;;;;;;;;;;0.45;100.00;97451.22;5031254;28;19940;-66
2022/12/28 02:52:20;;;;;;;;;;;;;;;0.27;100.00;97422.25;5031381;28;19917;-67
2022/12/28 02:57:50;;;;;;;;;;;;;;;0.36;100.00;97417.84;5035062;28;20373;-66
2022/12/28 03:00:20;;;;;;;;;;;;;;;0.40;100.00;97416.22;5035161;28;19913;-67
2022/12/28 03:02:48;;;;;;;;;;;;;;;0.40;100.00;97423.47;5034547;28;20012;-68
2022/12/28 03:08:19;;;;;;;;;;;;;;;0.43;100.00;97417.53;5034785;28;20020;-68
2022/12/28 03:10:56;;;;;;;;;;;;;;;0.40;100.00;97408.13;5034749;28;19917;-66
2022/12/28 03:13:42;;;;;;;;;;;;;;;0.50;100.00;97418.00;5034660;28;19917;-67
2022/12/28 03:16:11;;;;;;;;;;;;;;;0.55;100.00;97415.28;5033976;28;19921;-67
2022/12/28 03:32:27;;;;;;;;;;;;;;;0.35;100.00;97379.34;5034154;28;19917;-67
2022/12/28 03:34:53;;;;;;;;;;;;;;;0.34;100.00;97374.22;5034352;28;19913;-66
2022/12/28 03:37:29;;;;;;;;;;;;;;;0.37;100.00;97387.13;5033554;28;20381;-68
2022/12/28 03:40:06;;;;;;;;;;;;;;;0.49;100.00;97378.69;5034216;28;19936;-68
2022/12/28 03:45:34;;;;;;;;;;;;;;;0.38;100.00;97383.38;5033336;28;19925;-67
2022/12/28 03:48:00;;;;;;;;;;;;;;;0.40;100.00;97374.97;5034154;28;20389;-67
2022/12/28 03:50:25;;;;;;;;;;;;;;;0.33;100.00;97376.13;5034216;28;19921;-67
2022/12/28 03:52:51;;;;;;;;;;;;;;;0.11;100.00;97365.81;5041050;28;20343;-64
2022/12/28 03:55:16;;;;;;;;;;;;;;;0.13;100.00;97366.34;5040727;28;19965;-67
2022/12/28 03:57:42;;;;;;;;;;;;;;;0.18;100.00;97362.78;5033135;28;19917;-66
2022/12/28 04:00:10;;;;;;;;;;;;;;;0.23;100.00;97368.13;5033903;28;19921;-66
2022/12/28 04:02:36;;;;;;;;;;;;;;;0.31;100.00;97359.44;5033609;28;19943;-67
2022/12/28 04:05:01;;;;;;;;;;;;;;;0.46;100.00;97371.16;5033154;28;20008;-67
2022/12/28 04:07:27;;;;;;;;;;;;;;;0.51;100.00;97360.34;5033071;28;20378;-67
2022/12/28 04:09:52;;;;;;;;;;;;;;;0.38;100.00;97356.41;5033413;28;19917;-66
2022/12/28 04:12:18;;;;;;;;;;;;;;;0.27;100.00;97361.09;5033503;28;19916;-67
2022/12/28 04:14:43;;;;;;;;;;;;;;;0.08;100.00;97357.50;5033618;28;19913;-67
2022/12/28 04:17:09;;;;;;;;;;;;;;;-0.04;100.00;97355.97;5032654;28;19922;-68
2022/12/28 04:19:34;;;;;;;;;;;;;;;-0.23;100.00;97355.03;5033512;28;20012;-68
2022/12/28 04:21:59;;;;;;;;;;;;;;;-0.22;100.00;97343.16;5033132;28;19913;-68
2022/12/28 04:24:24;;;;;;;;;;;;;;;-0.21;100.00;97342.09;5032959;28;20300;-68
2022/12/28 04:26:50;;;;;;;;;;;;;;;-0.18;100.00;97338.84;5032467;28;19917;-67
2022/12/28 04:29:15;;;;;;;;;;;;;;;-0.10;100.00;97342.81;5033328;28;20031;-67
2022/12/28 04:31:40;;;;;;;;;;;;;;;-0.12;100.00;97342.31;5033174;28;19917;-68
2022/12/28 04:34:06;;;;;;;;;;;;;;;-0.22;100.00;97345.88;5033112;28;20437;-68
2022/12/28 04:36:31;;;;;;;;;;;;;;;-0.31;100.00;97340.28;5032399;28;19920;-68
2022/12/28 04:38:57;;;;;;;;;;;;;;;-0.27;100.00;97343.22;5032804;28;20432;-68
2022/12/28 04:41:22;;;;;;;;;;;;;;;-0.17;100.00;97339.66;5033015;28;20012;-67
2022/12/28 04:43:47;;;;;;;;;;;;;;;-0.16;100.00;97333.16;5032537;28;19939;-67
2022/12/28 04:46:13;;;;;;;;;;;;;;;-0.13;100.00;97332.59;5032162;28;19951;-68
2022/12/28 04:48:39;;;;;;;;;;;;;;;-0.02;100.00;97340.34;5032923;28;19914;-68
2022/12/28 04:51:09;;;;;;;;;;;;;;;-0.02;100.00;97336.81;5032701;28;20278;-66
2022/12/28 04:53:38;;;;;;;;;;;;;;;-0.08;100.00;97333.38;5032602;28;19913;-67
2022/12/28 04:56:03;;;;;;;;;;;;;;;-0.11;100.00;97325.03;5031878;28;19924;-68
2022/12/28 04:58:29;;;;;;;;;;;;;;;-0.08;100.00;97330.69;5032573;28;20000;-68
2022/12/28 05:01:00;;;;;;;;;;;;;;;-0.08;100.00;97330.69;5032749;28;19917;-67
2022/12/28 05:03:25;;;;;;;;;;;;;;;-0.11;100.00;97333.94;5034751;28;19921;-68
2022/12/28 05:05:50;;;;;;;;;;;;;;;-0.12;100.00;97329.63;5031908;28;19932;-68
2022/12/28 05:08:16;;;;;;;;;;;;;;;-0.16;100.00;97336.69;5032758;28;20294;-66
2022/12/28 05:10:41;;;;;;;;;;;;;;;-0.17;100.00;97331.56;5032326;28;19955;-68
2022/12/28 05:13:06;;;;;;;;;;;;;;;-0.09;100.00;97322.88;5032507;28;19925;-67
2022/12/28 05:15:31;;;;;;;;;;;;;;;-0.08;100.00;97321.81;5031440;28;19913;-68
2022/12/28 05:17:57;;;;;;;;;;;;;;;-0.02;100.00;97321.47;5032397;28;19917;-68
2022/12/28 05:20:22;;;;;;;;;;;;;;;0.03;100.00;97319.81;5032424;28;20008;-68
2022/12/28 05:22:47;;;;;;;;;;;;;;;0.02;100.00;97313.63;5032207;28;19917;-68
2022/12/28 05:25:13;;;;;;;;;;;;;;;0.08;100.00;97312.50;5044252;28;19917;-67
2022/12/28 05:27:38;;;;;;;;;;;;;;;0.03;100.00;97312.53;5035711;28;19913;-68
2022/12/28 05:30:03;;;;;;;;;;;;;;;-0.05;100.00;97305.88;5032044;28;19917;-67
2022/12/28 05:32:29;;;;;;;;;;;;;;;-0.09;100.00;97312.94;5031933;28;20369;-68
2022/12/28 05:34:54;;;;;;;;;;;;;;;-0.11;100.00;97315.09;5032524;28;19964;-68
2022/12/28 05:37:19;;;;;;;;;;;;;;;-0.05;100.00;97305.09;5032831;28;20424;-67
2022/12/28 05:39:45;;;;;;;;;;;;;;;0.08;100.00;97307.09;5032699;28;20012;-68
2022/12/28 05:42:10;;;;;;;;;;;;;;;-0.08;100.00;97311.81;5032076;28;19939;-68
2022/12/28 05:44:35;;;;;;;;;;;;;;;-0.15;100.00;97311.34;5031848;28;20497;-67
2022/12/28 05:47:00;;;;;;;;;;;;;;;-0.20;100.00;97314.91;5031334;28;20298;-69
2022/12/28 05:49:26;;;;;;;;;;;;;;;-0.21;100.00;97313.28;5032370;28;19913;-68
2022/12/28 05:51:51;;;;;;;;;;;;;;;-0.21;100.00;97305.19;5030524;28;19913;-68
2022/12/28 05:54:16;;;;;;;;;;;;;;;-0.14;100.00;97307.59;5031880;28;19919;-68
2022/12/28 05:56:42;;;;;;;;;;;;;;;-0.13;100.00;97308.38;5031014;28;19913;-67
2022/12/28 05:59:07;;;;;;;;;;;;;;;-0.14;100.00;97312.97;5031787;28;20158;-68
2022/12/28 06:01:34;;;;;;;;;;;;;;;-0.13;100.00;97311.06;5031574;28;20416;-68
2022/12/28 06:04:00;;;;;;;;;;;;;;;-0.17;100.00;97310.81;5031194;28;20040;-68
2022/12/28 06:06:26;;;;;;;;;;;;;;;-0.20;100.00;97316.75;5032708;28;19959;-68
2022/12/28 06:08:51;;;;;;;;;;;;;;;-0.22;100.00;97311.69;5033515;28;19913;-67
2022/12/28 06:11:21;;;;;;;;;;;;;;;-0.27;100.00;97313.59;5031774;28;19983;-68
2022/12/28 06:13:46;;;;;;;;;;;;;;;-0.29;100.00;97305.81;5031571;28;19913;-67
2022/12/28 06:16:13;;;;;;;;;;;;;;;-0.29;100.00;97315.75;5030874;28;20293;-68
2022/12/28 06:18:39;;;;;;;;;;;;;;;-0.34;100.00;97313.09;5031759;28;19917;-66
2022/12/28 06:21:07;;;;;;;;;;;;;;;-0.34;100.00;97316.63;5031657;28;19913;-67
2022/12/28 06:23:32;;;;;;;;;;;;;;;-0.31;100.00;97317.94;5031403;28;20432;-66
2022/12/28 06:25:58;;;;;;;;;;;;;;;-0.33;100.00;97312.84;5030729;28;19980;-68
2022/12/28 06:28:24;;;;;;;;;;;;;;;-0.38;100.00;97315.56;5030811;28;19991;-68
2022/12/28 06:30:49;;;;;;;;;;;;;;;-0.34;100.00;97313.09;5031168;28;20378;-68
2022/12/28 06:33:14;;;;;;;;;;;;;;;-0.40;100.00;97309.66;5031181;28;19928;-67
2022/12/28 06:35:40;;;;;;;;;;;;;;;-0.42;100.00;97304.53;5030360;28;19917;-66
2022/12/28 06:38:05;;;;;;;;;;;;;;;-0.41;100.00;97310.75;5031072;28;19917;-67
2022/12/28 06:40:30;;;;;;;;;;;;;;;-0.49;100.00;97298.69;5030794;28;19913;-67
2022/12/28 06:42:56;;;;;;;;;;;;;;;-0.56;100.00;97303.56;5031129;28;20082;-67
2022/12/28 06:45:21;;;;;;;;;;;;;;;-0.61;100.00;97290.19;5030739;28;20056;-65
2022/12/28 06:47:46;;;;;;;;;;;;;;;-0.70;100.00;97284.59;5030730;28;19917;-68
2022/12/28 06:50:11;;;;;;;;;;;;;;;-0.69;100.00;97280.78;5031126;28;19917;-67
2022/12/28 06:52:37;;;;;;;;;;;;;;;-0.72;100.00;97284.06;5031204;28;19917;-67
2022/12/28 06:55:02;;;;;;;;;;;;;;;-0.87;100.00;97278.75;5030983;28;20328;-67
2022/12/28 06:57:27;;;;;;;;;;;;;;;-0.90;100.00;97282.81;5044897;28;19920;-66
2022/12/28 06:59:53;;;;;;;;;;;;;;;-0.86;100.00;97281.19;5032115;28;20003;-67
2022/12/28 07:02:18;;;;;;;;;;;;;;;-0.78;100.00;97285.16;5031187;28;19921;-67
2022/12/28 07:04:43;;;;;;;;;;;;;;;-0.69;100.00;97294.25;5030856;28;20374;-67
2022/12/28 07:07:09;;;;;;;;;;;;;;;-0.62;100.00;97291.25;5030153;28;19913;-67
2022/12/28 07:09:34;;;;;;;;;;;;;;;-0.77;100.00;97284.09;5030820;28;20374;-67
2022/12/28 07:11:59;;;;;;;;;;;;;;;-0.77;100.00;97287.56;5031081;28;19944;-67
2022/12/28 07:14:24;;;;;;;;;;;;;;;-0.59;100.00;97283.41;5030719;28;20416;-67
2022/12/28 07:16:49;;;;;;;;;;;;;;;-0.53;100.00;97289.56;5030205;28;19917;-66
2022/12/28 07:19:15;;;;;;;;;;;;;;;-0.53;100.00;97288.78;5031016;28;19913;-67
2022/12/28 07:21:40;;;;;;;;;;;;;;;-0.50;100.00;97291.72;5031557;28;19920;-66
2022/12/28 07:24:06;;;;;;;;;;;;;;;-0.40;100.00;97296.19;5031605;28;20452;-66
2022/12/28 07:26:33;;;;;;;;;;;;;;;-0.32;100.00;97292.13;5030310;28;19920;-70
2022/12/28 07:28:59;;;;;;;;;;;;;;;-0.27;100.00;97292.88;5030816;28;20300;-66
2022/12/28 07:31:26;;;;;;;;;;;;;;;-0.13;100.00;97298.41;5031195;28;20336;-65
2022/12/28 07:33:52;;;;;;;;;;;;;;;-0.05;100.00;97292.41;5030819;28;19967;-67
2022/12/28 07:36:18;;;;;;;;;;;;;;;0.01;100.00;97292.38;5030102;28;19921;-66
2022/12/28 07:38:43;;;;;;;;;;;;;;;-0.01;100.00;97282.69;5030961;28;19921;-66
2022/12/28 07:41:11;;;;;;;;;;;;;;;0.04;100.00;97281.00;5033912;28;19913;-67
2022/12/28 07:43:36;;;;;;;;;;;;;;;0.16;100.00;97278.75;5034116;28;19913;-68
2022/12/28 07:46:03;;;;;;;;;;;;;;;0.31;100.00;97277.81;5033105;28;20271;-67
2022/12/28 07:48:33;;;;;;;;;;;;;;;0.60;100.00;97274.25;5033948;28;20416;-66
2022/12/28 07:51:05;;;;;;;;;;;;;;;1.27;100.00;97272.28;5033985;28;19941;-68
2022/12/28 07:53:30;;;;;;;;;;;;;;;1.70;100.00;97269.47;5034087;28;19920;-67
2022/12/28 07:55:59;;;;;;;;;;;;;;;1.91;100.00;97274.53;5033258;28;19913;-67
2022/12/28 07:58:24;;;;;;;;;;;;;;;2.03;100.00;97274.84;5034076;28;19928;-68
2022/12/28 08:00:50;;;;;;;;;;;;;;;1.97;100.00;97264.44;5033945;28;20290;-67
2022/12/28 08:03:15;;;;;;;;;;;;;;;1.85;100.00;97276.50;5033548;28;20392;-68
2022/12/28 08:05:41;;;;;;;;;;;;;;;2.17;100.00;97282.22;5027282;28;19921;-67
2022/12/28 08:08:06;;;;;;;;;;;;;;;2.20;100.00;97268.09;5026740;28;19921;-67
2022/12/28 08:10:32;;;;;;;;;;;;;;;2.32;100.00;97263.00;5033535;28;19963;-67
2022/12/28 08:13:00;;;;;;;;;;;;;;;2.55;100.00;97265.81;5033772;28;19938;-67
2022/12/28 08:15:26;;;;;;;;;;;;;;;3.17;100.00;97259.94;5033106;28;19996;-68
2022/12/28 08:17:52;;;;;;;;;;;;;;;3.38;100.00;97262.97;5034171;28;20020;-69
2022/12/28 08:20:17;;;;;;;;;;;;;;;3.40;100.00;97264.28;5033770;28;20374;-69
2022/12/28 08:22:43;;;;;;;;;;;;;;;3.44;100.00;97256.34;5032956;28;19971;-68
2022/12/28 08:25:08;;;;;;;;;;;;;;;3.43;100.00;97255.53;5033376;28;20374;-69
2022/12/28 08:27:33;;;;;;;;;;;;;;;3.33;100.00;97252.25;5032946;28;19913;-68
2022/12/28 08:29:59;;;;;;;;;;;;;;;3.44;100.00;97249.03;5033644;28;20285;-67
2022/12/28 08:32:24;;;;;;;;;;;;;;;3.75;100.00;97244.78;5033967;28;19913;-68
2022/12/28 08:34:49;;;;;;;;;;;;;;;2.81;100.00;97244.44;5037504;28;19964;-67
2022/12/28 08:37:14;;;;;;;;;;;;;;;2.49;100.00;97233.47;5035633;28;19913;-67
2022/12/28 08:39:40;;;;;;;;;;;;;;;2.48;100.00;97239.16;5032967;28;19925;-66
2022/12/28 08:42:05;;;;;;;;;;;;;;;2.83;100.00;97244.97;5015427;28;19971;-66
2022/12/28 08:44:30;;;;;;;;;;;;;;;3.10;100.00;97233.28;5033427;28;19921;-67
2022/12/28 08:46:56;;;;;;;;;;;;;;;3.12;100.00;97231.09;5030925;28;19993;-66
2022/12/28 08:49:22;;;;;;;;;;;;;;;3.23;100.00;97232.44;5032313;28;19924;-66
2022/12/28 08:51:47;;;;;;;;;;;;;;;3.40;100.00;97239.94;5032006;28;20293;-65
2022/12/28 08:54:13;;;;;;;;;;;;;;;3.59;100.00;97242.44;5032569;28;19992;-66
2022/12/28 08:56:39;;;;;;;;;;;;;;;3.62;100.00;97251.88;5031887;28;20468;-67
2022/12/28 08:59:05;;;;;;;;;;;;;;;3.69;100.00;97246.00;5032971;28;19920;-66
2022/12/28 09:01:38;;;;;;;;;;;;;;;3.48;100.00;97248.44;5032753;28;20374;-67
2022/12/28 09:04:03;;;;;;;;;;;;;;;3.60;100.00;97243.22;5037560;28;20004;-66
2022/12/28 09:06:30;;;;;;;;;;;;;;;3.58;100.00;97237.31;5035479;28;19956;-67
2022/12/28 09:08:56;;;;;;;;;;;;;;;3.58;100.00;97230.03;5032378;28;19917;-68
2022/12/28 09:11:22;;;;;;;;;;;;;;;3.13;100.00;97216.41;5031817;28;19920;-67
2022/12/28 09:13:47;;;;;;;;;;;;;;;2.89;100.00;97224.81;5031394;28;19921;-68
2022/12/28 09:16:14;;;;;;;;;;;;;;;3.21;100.00;97225.75;5031620;28;20031;-69
2022/12/28 09:18:40;;;;;;;;;;;;;;;3.41;100.00;97230.69;5031062;28;19926;-68
2022/12/28 09:21:08;;;;;;;;;;;;;;;3.61;100.00;97226.69;5031582;28;19983;-68
2022/12/28 09:23:33;;;;;;;;;;;;;;;3.89;100.00;97239.28;5032298;28;19913;-68
2022/12/28 09:26:04;;;;;;;;;;;;;;;4.25;100.00;97236.47;5030846;28;20401;-67
2022/12/28 09:28:30;;;;;;;;;;;;;;;4.57;100.00;97235.31;5032424;28;19943;-67
2022/12/28 09:30:55;;;;;;;;;;;;;;;4.68;100.00;97237.72;5031810;28;20007;-68
2022/12/28 09:36:05;;;;;;;;;;;;;;;5.45;100.00;97228.09;5031377;28;19917;-67
2022/12/28 09:38:30;;;;;;;;;;;;;;;6.01;100.00;97230.13;5032640;28;19913;-68
2022/12/28 09:40:56;;;;;;;;;;;;;;;6.72;97.82;97232.28;5032453;28;20286;-67
2022/12/28 09:43:21;;;;;;;;;;;;;;;7.38;92.95;97215.34;5032609;28;19916;-67
2022/12/28 09:45:47;;;;;;;;;;;;;;;7.70;87.73;97212.97;5031357;28;20071;-67
2022/12/28 09:48:14;;;;;;;;;;;;;;;7.58;89.59;97212.91;5032454;28;19920;-67
2022/12/28 09:50:39;;;;;;;;;;;;;;;7.59;89.78;97209.84;5031950;28;19913;-67
2022/12/28 09:53:20;;;;;;;;;;;;;;;8.30;90.18;97201.75;5031431;28;20028;-66
2022/12/28 09:56:08;;;;;;;;;;;;;;;9.26;83.93;97208.69;5031115;28;19917;-66
2022/12/28 09:58:38;;;;;;;;;;;;;;;9.94;79.78;97205.13;5030582;28;19913;-67
2022/12/28 10:01:03;;;;;;;;;;;;;;;10.20;78.22;97204.63;5031552;28;19921;-66
2022/12/28 10:03:36;;;;;;;;;;;;;;;10.24;75.56;97200.03;5031043;28;19924;-66
2022/12/28 10:06:03;;;;;;;;;;;;;;;9.83;75.66;97198.56;5030929;28;19944;-65
2022/12/28 10:08:28;;;;;;;;;;;;;;;9.17;80.33;97187.75;5031616;28;20329;-66
2022/12/28 10:10:58;;;;;;;;;;;;;;;8.84;82.64;97181.66;5032118;28;19913;-66
2022/12/28 10:13:24;;;;;;;;;;;;;;;7.93;89.49;97188.06;5032465;28;19924;-67
2022/12/28 10:15:51;;;;;;;;;;;;;;;7.58;92.73;97182.94;5031581;28;19914;-67
2022/12/28 10:18:22;;;;;;;;;;;;;;;7.73;92.65;97176.06;5031451;28;20523;-67
2022/12/28 10:20:48;;;;;;;;;;;;;;;8.00;90.20;97177.38;5031676;28;19960;-67
2022/12/28 10:23:15;;;;;;;;;;;;;;;7.78;92.33;97168.47;5037004;28;20405;-66
2022/12/28 10:25:40;;;;;;;;;;;;;;;7.69;95.04;97169.69;5029625;28;19928;-67
2022/12/28 10:28:07;;;;;;;;;;;;;;;7.72;96.87;97161.63;5031678;28;19913;-68
2022/12/28 10:30:42;;;;;;;;;;;;;;;8.19;92.77;97160.47;5031303;28;19917;-67
2022/12/28 10:33:14;;;;;;;;;;;;;;;8.35;87.31;97152.41;5031128;28;19921;-69
2022/12/28 10:35:48;;;;;;;;;;;;;;;8.37;89.03;97155.59;5030660;28;20019;-69
2022/12/28 10:38:24;;;;;;;;;;;;;;;8.57;87.37;97143.00;5031489;28;19917;-68
2022/12/28 10:41:01;;;;;;;;;;;;;;;9.04;82.89;97137.00;5031288;28;19914;-68
2022/12/28 10:43:28;;;;;;;;;;;;;;;9.36;81.44;97121.53;5032053;28;19913;-67
2022/12/28 10:45:54;;;;;;;;;;;;;;;9.59;80.61;97117.44;5030827;28;20297;-65
2022/12/28 10:48:38;;;;;;;;;;;;;;;9.24;80.64;97115.28;5031080;28;19913;-67
2022/12/28 10:51:06;;;;;;;;;;;;;;;7.70;92.23;97114.81;5030947;28;19944;-66
2022/12/28 10:53:40;;;;;;;;;;;;;;;7.47;96.54;97117.13;5031062;28;19917;-68
2022/12/28 10:56:11;;;;;;;;;;;;;;;7.76;94.22;97107.22;5030316;28;19917;-68
2022/12/28 10:58:37;;;;;;;;;;;;;;;7.88;95.29;97109.19;5032852;28;20015;-68
2022/12/28 11:01:14;;;;;;;;;;;;;;;8.08;95.57;97102.81;5031284;28;20004;-66
2022/12/28 11:03:39;;;;;;;;;;;;;;;7.43;95.40;97102.59;5031014;28;19921;-67
2022/12/28 11:06:08;;;;;;;;;;;;;;;7.39;98.32;97091.56;5027944;28;20385;-67
2022/12/28 11:08:34;;;;;;;;;;;;;;;7.00;100.00;97088.22;5029159;28;20386;-65
2022/12/28 11:11:00;;;;;;;;;;;;;;;6.91;100.00;97082.06;5018793;28;19921;-66
2022/12/28 11:13:26;;;;;;;;;;;;;;;6.69;100.00;97086.72;5017132;28;20273;-66
2022/12/28 11:15:51;;;;;;;;;;;;;;;6.86;100.00;97077.63;5021133;28;19976;-66
2022/12/28 11:18:17;;;;;;;;;;;;;;;6.98;100.00;97076.88;5016245;28;20499;-68
2022/12/28 11:20:47;;;;;;;;;;;;;;;7.52;100.00;97070.59;5008187;28;20405;-66
2022/12/28 11:23:18;;;;;;;;;;;;;;;7.87;96.72;97072.13;5020146;28;19924;-67
2022/12/28 11:25:44;;;;;;;;;;;;;;;8.06;96.54;97066.13;5023737;28;19974;-68
2022/12/28 11:28:15;;;;;;;;;;;;;;;8.32;94.72;97063.03;5020159;28;20000;-67
2022/12/28 11:30:40;;;;;;;;;;;;;;;8.34;93.23;97061.56;5024816;28;20409;-67
2022/12/28 11:33:08;;;;;;;;;;;;;;;8.31;92.16;97056.78;5020738;28;20015;-66
2022/12/28 11:35:37;;;;;;;;;;;;;;;8.32;91.94;97054.84;5006383;28;19917;-66
2022/12/28 11:38:04;;;;;;;;;;;;;;;8.20;91.57;97050.19;5022802;28;20424;-65
2022/12/28 11:40:42;;;;;;;;;;;;;;;8.25;93.31;97044.50;5006218;28;19917;-67
2022/12/28 11:43:26;;;;;;;;;;;;;;;8.51;92.56;97049.59;5019985;28;20055;-67
2022/12/28 11:45:53;;;;;;;;;;;;;;;9.01;90.14;97039.34;5005395;28;19936;-67
2022/12/28 11:48:37;;;;;;;;;;;;;;;8.55;90.23;97036.06;5019867;28;19918;-69
2022/12/28 11:51:03;;;;;;;;;;;;;;;8.85;90.24;97031.09;5020860;28;19921;-64
2022/12/28 11:53:32;;;;;;;;;;;;;;;10.01;85.71;97030.19;5005789;28;19917;-67
2022/12/28 11:56:00;;;;;;;;;;;;;;;10.92;75.18;97022.00;5022680;28;19949;-66
2022/12/28 11:58:28;;;;;;;;;;;;;;;11.59;73.14;97027.97;5001344;28;19987;-66
2022/12/28 12:00:54;;;;;;;;;;;;;;;11.15;69.22;97019.34;5023191;28;19959;-66
2022/12/28 12:03:19;;;;;;;;;;;;;;;11.70;70.47;97016.38;5018913;28;19968;-67
2022/12/28 12:05:48;;;;;;;;;;;;;;;12.03;68.89;97021.28;5023166;28;20374;-67
2022/12/28 12:08:13;;;;;;;;;;;;;;;12.54;66.85;97017.31;5019920;28;19932;-65
2022/12/28 12:10:40;;;;;;;;;;;;;;;12.54;66.12;97011.81;5024238;28;19917;-67
2022/12/28 12:13:24;;;;;;;;;;;;;;;12.15;65.61;97009.28;5009464;28;19917;-67
2022/12/28 12:15:51;;;;;;;;;;;;;;;11.97;66.76;97011.75;5027574;28;20000;-67
2022/12/28 12:18:21;;;;;;;;;;;;;;;12.84;63.78;97003.59;5019079;28;19917;-67
2022/12/28 12:20:50;;;;;;;;;;;;;;;13.17;60.54;97005.53;5023461;28;19923;-66
2022/12/28 12:23:23;;;;;;;;;;;;;;;12.92;60.10;96996.97;5016012;28;19924;-65
2022/12/28 12:25:53;;;;;;;;;;;;;;;13.03;59.36;96988.06;5022010;28;19972;-66
2022/12/28 12:28:39;;;;;;;;;;;;;;;13.39;57.33;96989.28;5018879;28;20691;-66
2022/12/28 12:31:12;;;;;;;;;;;;;;;12.93;57.21;96978.56;5020043;28;19928;-64
2022/12/28 12:33:41;;;;;;;;;;;;;;;12.94;56.13;96977.38;5023017;28;19925;-65
2022/12/28 12:36:12;;;;;;;;;;;;;;;12.24;58.95;96972.19;5017156;28;19966;-65
2022/12/28 12:38:47;;;;;;;;;;;;;;;12.13;59.42;96964.94;5023729;28;19925;-66
2022/12/28 12:41:15;;;;;;;;;;;;;;;12.51;59.08;96965.84;5019042;28;19924;-66
2022/12/28 12:43:49;;;;;;;;;;;;;;;13.07;56.46;96956.72;5023619;28;19917;-66
2022/12/28 12:46:37;;;;;;;;;;;;;;;12.56;57.68;96960.03;5017540;28;19925;-65
2022/12/28 12:49:20;;;;;;;;;;;;;;;12.95;58.29;96949.50;5021559;28;20402;-65
2022/12/28 12:51:57;;;;;;;;;;;;;;;13.48;54.99;96950.44;5023180;28;19921;-67
2022/12/28 12:54:41;;;;;;;;;;;;;;;14.25;53.28;96943.13;5017689;28;19925;-66
2022/12/28 12:57:16;;;;;;;;;;;;;;;14.88;51.51;96946.59;5017426;28;19917;-64
2022/12/28 13:00:04;;;;;;;;;;;;;;;14.88;51.17;96940.31;5023012;28;19963;-67
2022/12/28 13:02:53;;;;;;;;;;;;;;;14.69;51.08;96931.19;5021546;28;19968;-67
2022/12/28 13:05:20;;;;;;;;;;;;;;;13.62;53.63;96938.78;5018285;28;20402;-66
2022/12/28 13:07:45;;;;;;;;;;;;;;;13.05;55.60;96928.78;5021635;28;19921;-67
2022/12/28 13:10:22;;;;;;;;;;;;;;;12.71;56.82;96937.06;5017941;28;19921;-67
2022/12/28 13:12:47;;;;;;;;;;;;;;;11.71;60.12;96928.22;5023740;28;19956;-67
2022/12/28 13:15:16;;;;;;;;;;;;;;;11.52;62.24;96933.78;5017831;28;19996;-67
2022/12/28 13:18:02;;;;;;;;;;;;;;;11.44;63.90;96922.69;5021181;28;20314;-66